createdAt,value
2022-09-10T00:00:29.665Z,21.70
2022-09-10T00:02:55.687Z,21.79
2022-09-10T00:05:21.659Z,21.62
2022-09-10T00:07:48.555Z,21.50
2022-09-10T00:10:14.511Z,21.55
2022-09-10T00:12:40.434Z,21.65
2022-09-10T00:15:06.445Z,21.76
2022-09-10T00:17:32.383Z,21.78
2022-09-10T00:19:58.349Z,21.82
2022-09-10T00:22:25.074Z,21.87
2022-09-10T00:24:51.084Z,21.91
2022-09-10T00:27:17.020Z,21.80
2022-09-10T00:29:42.979Z,21.69
2022-09-10T00:32:09.873Z,21.67
2022-09-10T00:34:35.871Z,21.60
2022-09-10T00:37:01.837Z,21.60
2022-09-10T00:39:28.510Z,21.66
2022-09-10T00:41:54.489Z,21.72
2022-09-10T00:44:21.327Z,21.74
2022-09-10T00:46:47.935Z,21.68
2022-09-10T00:49:14.500Z,21.78
2022-09-10T00:51:40.498Z,21.65
2022-09-10T00:54:06.748Z,21.60
2022-09-10T00:56:32.728Z,21.46
2022-09-10T00:58:58.660Z,21.49
2022-09-10T01:01:24.612Z,21.50
2022-09-10T01:03:50.905Z,21.60
2022-09-10T01:06:17.546Z,21.57
2022-09-10T01:08:43.471Z,21.47
2022-09-10T01:11:09.416Z,21.50
2022-09-10T01:13:35.372Z,21.36
2022-09-10T01:16:02.117Z,21.41
2022-09-10T01:18:28.107Z,21.48
2022-09-10T01:20:54.048Z,21.53
2022-09-10T01:23:20.063Z,21.64
2022-09-10T01:25:46.240Z,21.69
2022-09-10T01:28:12.663Z,21.58
2022-09-10T01:30:38.699Z,21.58
2022-09-10T01:33:05.350Z,21.58
2022-09-10T01:35:32.236Z,21.58
2022-09-10T01:37:58.168Z,21.45
2022-09-10T01:40:24.616Z,21.30
2022-09-10T01:42:50.577Z,21.36
2022-09-10T01:45:17.195Z,21.49
2022-09-10T01:47:43.157Z,21.48
2022-09-10T01:50:09.093Z,21.55
2022-09-10T01:52:35.121Z,21.58
2022-09-10T01:55:01.692Z,21.65
2022-09-10T01:57:27.647Z,21.56
2022-09-10T01:59:53.933Z,21.45
2022-09-10T02:02:21.457Z,21.41
2022-09-10T02:10:08.578Z,21.27
2022-09-10T02:12:34.735Z,21.37
2022-09-10T04:10:10.739Z,20.69
2022-09-10T04:12:37.426Z,20.74
2022-09-10T04:15:03.368Z,20.66
2022-09-10T04:17:29.971Z,20.67
2022-09-10T04:19:55.923Z,20.63
2022-09-10T04:22:21.884Z,20.50
2022-09-10T04:24:47.818Z,20.44
2022-09-10T04:27:13.789Z,20.56
2022-09-10T04:29:39.755Z,20.51
2022-09-10T04:32:05.807Z,20.34
2022-09-10T04:34:31.764Z,20.29
2022-09-10T04:36:58.130Z,20.39
2022-09-10T04:39:24.107Z,20.41
2022-09-10T04:41:50.062Z,20.46
2022-09-10T04:44:16.916Z,20.40
2022-09-10T04:46:43.584Z,20.25
2022-09-10T04:49:09.602Z,20.17
2022-09-10T04:51:35.556Z,20.12
2022-09-10T04:54:02.237Z,20.20
2022-09-10T04:56:28.249Z,20.19
2022-09-10T04:58:54.220Z,20.23
2022-09-10T05:01:20.922Z,20.13
2022-09-10T05:03:46.936Z,20.10
2022-09-10T05:06:12.891Z,20.08
2022-09-10T05:08:39.536Z,20.20
2022-09-10T05:11:05.515Z,20.28
2022-09-10T05:13:31.455Z,20.31
2022-09-10T05:15:57.391Z,20.39
2022-09-10T05:18:24.226Z,20.40
2022-09-10T05:20:50.174Z,20.43
2022-09-10T05:23:16.123Z,20.47
2022-09-10T05:25:42.809Z,20.38
2022-09-10T05:28:08.790Z,20.32
2022-09-10T05:30:34.801Z,20.39
2022-09-10T05:33:00.733Z,20.42
2022-09-10T05:35:27.557Z,20.35
2022-09-10T05:37:53.822Z,20.45
2022-09-10T05:40:19.789Z,20.68
2022-09-10T05:42:45.770Z,20.82
2022-09-10T05:45:11.732Z,20.79
2022-09-10T05:47:37.678Z,20.90
2022-09-10T05:50:03.610Z,20.78
2022-09-10T05:52:29.584Z,21.00
2022-09-10T05:54:55.511Z,21.03
2022-09-10T05:57:21.486Z,21.15
2022-09-10T05:59:48.114Z,21.24
2022-09-10T06:02:14.088Z,21.35
2022-09-10T06:04:40.112Z,21.54
2022-09-10T06:07:06.044Z,21.53
2022-09-10T06:09:32.028Z,21.63
2022-09-10T06:11:58.004Z,21.64
2022-09-10T06:14:24.661Z,21.66
2022-09-10T06:16:50.641Z,21.76
2022-09-10T06:19:16.628Z,21.91
2022-09-10T06:21:43.296Z,21.98
2022-09-10T06:24:09.257Z,22.08
2022-09-10T06:26:35.238Z,22.27
2022-09-10T06:29:01.235Z,22.26
2022-09-10T06:31:27.173Z,22.08
2022-09-10T06:33:53.143Z,22.23
2022-09-10T06:36:19.096Z,22.41
2022-09-10T06:38:45.093Z,22.57
2022-09-10T06:41:11.055Z,22.54
2022-09-10T06:43:37.701Z,22.56
2022-09-10T06:46:03.749Z,22.43
2022-09-10T06:48:38.561Z,22.37
2022-09-10T06:51:06.226Z,22.65
2022-09-10T06:53:32.503Z,22.94
2022-09-10T06:55:59.854Z,22.77
2022-09-10T06:58:26.216Z,22.92
2022-09-10T07:00:52.363Z,22.91
2022-09-10T07:11:20.472Z,23.22
2022-09-10T09:08:09.417Z,26.86
2022-09-10T09:10:35.375Z,26.92
2022-09-10T09:13:02.089Z,27.33
2022-09-10T09:15:28.153Z,26.76
2022-09-10T09:17:54.141Z,26.57
2022-09-10T09:20:20.136Z,26.57
2022-09-10T09:22:46.992Z,27.24
2022-09-10T09:25:12.988Z,26.89
2022-09-10T09:27:38.931Z,26.61
2022-09-10T09:30:05.613Z,27.31
2022-09-10T09:32:31.593Z,27.57
2022-09-10T09:34:57.546Z,27.23
2022-09-10T09:37:23.517Z,27.56
2022-09-10T09:39:49.502Z,27.83
2022-09-10T09:42:15.476Z,27.64
2022-09-10T09:44:41.456Z,27.60
2022-09-10T09:47:07.381Z,28.14
2022-09-10T09:49:33.351Z,27.98
2022-09-10T09:51:59.283Z,28.14
2022-09-10T09:57:11.187Z,27.31
2022-09-10T09:59:37.133Z,27.45
2022-09-10T10:02:04.032Z,27.83
2022-09-10T10:04:30.835Z,28.20
2022-09-10T10:06:56.901Z,28.80
2022-09-10T10:09:22.857Z,29.31
2022-09-10T10:11:49.505Z,28.96
2022-09-10T10:14:15.477Z,28.73
2022-09-10T10:16:42.173Z,28.72
2022-09-10T10:19:08.143Z,29.02
2022-09-10T10:21:34.133Z,29.46
2022-09-10T10:24:00.108Z,29.89
2022-09-10T10:29:10.374Z,29.44
2022-09-10T10:31:36.382Z,28.64
2022-09-10T10:34:02.332Z,28.54
2022-09-10T10:36:28.513Z,28.46
2022-09-10T10:38:54.445Z,28.49
2022-09-10T10:41:20.407Z,29.14
2022-09-10T10:43:46.375Z,29.75
2022-09-10T10:46:12.358Z,30.42
2022-09-10T10:48:38.445Z,30.77
2022-09-10T10:51:04.414Z,30.72
2022-09-10T10:53:31.150Z,30.45
2022-09-10T10:55:57.220Z,30.27
2022-09-10T10:58:23.150Z,30.54
2022-09-10T11:00:50.053Z,31.07
2022-09-10T11:03:15.999Z,31.22
2022-09-10T11:05:41.970Z,30.85
2022-09-10T11:08:07.901Z,31.43
2022-09-10T11:10:33.866Z,31.88
2022-09-10T11:12:59.795Z,31.76
2022-09-10T11:15:25.776Z,31.79
2022-09-10T11:17:51.750Z,32.01
2022-09-10T11:20:28.490Z,31.74
2022-09-10T11:22:55.219Z,31.71
2022-09-10T11:25:21.926Z,31.27
2022-09-10T11:27:47.949Z,31.13
2022-09-10T11:30:13.892Z,31.01
2022-09-10T11:32:39.835Z,30.84
2022-09-10T11:35:05.803Z,30.61
2022-09-10T11:37:32.720Z,30.76
2022-09-10T11:39:58.758Z,31.01
2022-09-10T11:42:24.766Z,31.17
2022-09-10T11:44:50.722Z,31.58
2022-09-10T11:47:18.050Z,31.83
2022-09-10T11:49:44.484Z,31.73
2022-09-10T11:52:10.708Z,31.75
2022-09-10T11:54:37.935Z,31.63
2022-09-10T11:57:04.179Z,31.06
2022-09-10T12:02:11.045Z,30.92
2022-09-10T14:02:23.497Z,28.13
2022-09-10T14:04:50.204Z,27.83
2022-09-10T14:07:16.193Z,27.74
2022-09-10T14:09:42.133Z,27.64
2022-09-10T14:12:08.844Z,27.60
2022-09-10T14:14:34.839Z,27.48
2022-09-10T14:17:00.773Z,27.39
2022-09-10T14:19:27.563Z,27.18
2022-09-10T14:21:53.513Z,26.99
2022-09-10T14:24:19.445Z,26.91
2022-09-10T14:26:45.566Z,26.79
2022-09-10T14:29:11.632Z,26.87
2022-09-10T14:31:37.608Z,26.92
2022-09-10T14:34:03.545Z,26.87
2022-09-10T14:36:29.506Z,26.91
2022-09-10T14:38:56.195Z,27.00
2022-09-10T14:41:22.160Z,27.06
2022-09-10T14:43:48.122Z,27.10
2022-09-10T14:46:14.103Z,26.96
2022-09-10T14:48:40.151Z,26.96
2022-09-10T14:51:06.485Z,26.67
2022-09-10T14:53:33.317Z,26.63
2022-09-10T14:55:59.326Z,26.56
2022-09-10T14:58:25.457Z,26.44
2022-09-10T15:00:52.174Z,26.25
2022-09-10T15:03:18.161Z,26.34
2022-09-10T15:05:44.130Z,26.45
2022-09-10T15:08:10.792Z,26.29
2022-09-10T15:10:36.750Z,26.10
2022-09-10T15:13:02.714Z,26.02
2022-09-10T15:15:29.356Z,25.68
2022-09-10T15:17:56.214Z,25.30
2022-09-10T15:20:27.173Z,25.55
2022-09-10T15:22:53.874Z,25.74
2022-09-10T15:25:20.589Z,25.78
2022-09-10T15:27:46.519Z,25.74
2022-09-10T15:30:12.477Z,25.65
2022-09-10T15:32:39.046Z,25.57
2022-09-10T15:35:05.006Z,25.64
2022-09-10T15:37:30.994Z,25.64
2022-09-10T15:39:57.046Z,25.76
2022-09-10T15:42:23.070Z,25.69
2022-09-10T15:44:49.022Z,25.70
2022-09-10T15:47:14.975Z,25.91
2022-09-10T15:49:41.653Z,25.67
2022-09-10T15:52:07.607Z,25.74
2022-09-10T15:54:33.580Z,25.72
2022-09-10T15:56:59.530Z,25.56
2022-09-10T15:59:26.562Z,25.64
2022-09-10T16:01:52.572Z,25.66
2022-09-10T16:04:18.538Z,25.43
2022-09-10T16:06:45.447Z,25.51
2022-09-10T16:09:11.454Z,25.51
2022-09-10T16:11:38.073Z,25.62
2022-09-10T16:14:04.820Z,25.64
2022-09-10T16:16:30.887Z,25.70
2022-09-10T16:18:57.511Z,25.84
2022-09-10T16:21:23.441Z,25.88
2022-09-10T16:23:49.397Z,25.87
2022-09-10T16:26:15.323Z,25.73
2022-09-10T16:28:41.406Z,25.48
2022-09-10T16:31:08.236Z,25.47
2022-09-10T16:33:34.230Z,25.48
2022-09-10T16:36:00.227Z,25.40
2022-09-10T16:38:26.806Z,25.35
2022-09-10T16:40:52.808Z,25.41
2022-09-10T16:43:19.075Z,25.43
2022-09-10T16:45:46.653Z,25.49
2022-09-10T16:48:12.874Z,25.41
2022-09-10T16:50:40.267Z,25.35
2022-09-10T16:53:11.419Z,25.36
2022-09-10T16:55:38.053Z,25.30
2022-09-10T18:55:21.107Z,23.13
2022-09-10T18:57:47.071Z,22.98
2022-09-10T19:00:13.197Z,22.82
2022-09-10T19:02:39.285Z,22.88
2022-09-10T19:05:11.573Z,22.80
2022-09-10T19:07:37.909Z,22.80
2022-09-10T19:10:04.437Z,22.76
2022-09-10T19:12:31.481Z,22.62
2022-09-10T19:14:57.432Z,22.68
2022-09-10T19:17:23.372Z,22.67
2022-09-10T19:19:50.296Z,22.47
2022-09-10T19:22:16.288Z,22.45
2022-09-10T19:24:58.703Z,22.40
2022-09-10T19:27:24.655Z,22.15
2022-09-10T19:29:51.482Z,22.15
2022-09-10T19:32:17.473Z,22.17
2022-09-10T19:34:43.450Z,21.94
2022-09-10T19:37:09.403Z,21.90
2022-09-10T19:39:36.023Z,21.92
2022-09-10T19:42:02.005Z,22.01
2022-09-10T19:44:28.010Z,21.78
2022-09-10T19:46:54.800Z,21.68
2022-09-10T19:49:20.757Z,21.67
2022-09-10T19:51:46.752Z,21.80
2022-09-10T19:54:13.364Z,21.77
2022-09-10T19:56:39.353Z,21.69
2022-09-10T19:59:05.318Z,21.71
2022-09-10T20:01:31.416Z,21.55
2022-09-10T20:03:57.410Z,21.42
2022-09-10T20:06:24.209Z,21.38
2022-09-10T20:08:50.163Z,21.44
2022-09-10T20:11:16.152Z,21.55
2022-09-10T20:13:42.846Z,21.59
2022-09-10T20:16:08.820Z,21.52
2022-09-10T20:18:35.675Z,21.43
2022-09-10T20:21:01.627Z,21.35
2022-09-10T20:23:27.595Z,21.10
2022-09-10T20:25:53.532Z,21.05
2022-09-10T20:28:19.481Z,21.10
2022-09-10T20:30:46.376Z,21.06
2022-09-10T20:33:12.357Z,21.11
2022-09-10T20:35:38.326Z,21.16
2022-09-10T20:38:05.018Z,21.15
2022-09-10T20:40:31.008Z,21.02
2022-09-10T20:42:56.945Z,20.65
2022-09-10T20:45:22.963Z,20.82
2022-09-10T20:47:48.947Z,20.95
2022-09-10T20:50:14.885Z,21.09
2022-09-10T20:52:40.849Z,20.99
2022-09-10T20:55:06.804Z,20.77
2022-09-10T20:57:33.557Z,20.76
2022-09-10T21:00:02.232Z,20.48
2022-09-10T21:02:29.131Z,20.58
2022-09-10T21:04:55.110Z,20.55
2022-09-10T21:07:21.433Z,20.42
2022-09-10T21:09:48.040Z,20.37
2022-09-10T21:12:13.998Z,20.46
2022-09-10T21:14:40.584Z,20.48
2022-09-10T21:17:06.551Z,20.47
2022-09-10T21:19:32.508Z,20.34
2022-09-10T21:21:58.452Z,20.31
2022-09-10T21:24:24.418Z,20.39
2022-09-10T21:26:50.346Z,20.50
2022-09-10T21:29:16.335Z,20.43
2022-09-10T21:31:42.310Z,20.09
2022-09-10T21:34:09.197Z,20.22
2022-09-10T21:36:35.492Z,19.94
2022-09-10T21:39:01.788Z,19.97
2022-09-10T21:41:28.513Z,20.17
2022-09-10T21:43:54.780Z,20.32
2022-09-10T21:49:01.319Z,20.22
